createdAt,value
2018-02-10T00:00:48.645Z,19.70
2018-02-10T00:03:15.695Z,18.20
2018-02-10T00:05:41.947Z,24.23
2018-02-10T00:08:08.936Z,24.00
2018-02-10T00:10:35.216Z,23.30
2018-02-10T00:13:01.496Z,24.53
2018-02-10T00:15:28.496Z,22.00
2018-02-10T00:17:55.010Z,27.10
2018-02-10T00:20:22.079Z,23.70
2018-02-10T00:22:48.376Z,22.77
2018-02-10T00:25:14.676Z,25.57
2018-02-10T00:27:40.928Z,25.27
2018-02-10T00:30:08.096Z,25.70
2018-02-10T00:32:34.349Z,24.00
2018-02-10T00:35:00.621Z,23.80
2018-02-10T00:37:27.627Z,24.70
2018-02-10T00:39:54.160Z,22.63
2018-02-10T00:42:20.411Z,22.63
2018-02-10T00:44:46.639Z,24.33
2018-02-10T00:47:12.893Z,26.47
2018-02-10T00:49:39.139Z,23.90
2018-02-10T00:52:05.394Z,22.67
2018-02-10T00:54:31.923Z,24.73
2018-02-10T00:56:58.196Z,21.50
2018-02-10T00:59:24.460Z,25.17
2018-02-10T01:01:51.496Z,22.63
2018-02-10T01:04:17.740Z,21.70
2018-02-10T01:06:43.974Z,20.80
2018-02-10T01:09:10.257Z,23.67
2018-02-10T01:11:36.508Z,19.53
2018-02-10T01:14:02.807Z,20.70
2018-02-10T01:16:29.358Z,24.07
2018-02-10T01:18:55.628Z,23.43
2018-02-10T01:21:21.899Z,24.07
2018-02-10T01:23:48.500Z,21.50
2018-02-10T01:26:15.488Z,17.07
2018-02-10T01:28:41.748Z,23.30
2018-02-10T01:31:08.028Z,20.20
2018-02-10T01:33:34.312Z,19.20
2018-02-10T01:36:01.392Z,22.67
2018-02-10T01:38:27.644Z,22.00
2018-02-10T01:40:53.910Z,20.37
2018-02-10T01:43:20.160Z,24.00
2018-02-10T01:45:48.431Z,22.20
2018-02-10T01:48:14.757Z,24.30
2018-02-10T01:50:41.024Z,22.33
2018-02-10T01:53:07.279Z,24.37
2018-02-10T01:55:34.259Z,22.20
2018-02-10T01:58:00.507Z,23.17
2018-02-10T02:00:26.792Z,20.90
2018-02-10T02:02:53.035Z,22.17
2018-02-10T02:05:19.267Z,20.00
2018-02-10T02:07:45.864Z,20.47
2018-02-10T02:10:12.908Z,19.50
2018-02-10T02:12:39.968Z,21.80
2018-02-10T02:15:07.318Z,18.17
2018-02-10T02:17:33.592Z,22.37
2018-02-10T02:19:59.856Z,18.50
2018-02-10T02:22:26.402Z,22.77
2018-02-10T02:24:52.643Z,21.20
2018-02-10T02:27:19.427Z,21.70
2018-02-10T02:29:45.944Z,19.57
2018-02-10T02:32:12.191Z,20.80
2018-02-10T02:34:38.536Z,21.83
2018-02-10T02:37:05.772Z,23.93
2018-02-10T02:39:32.032Z,22.73
2018-02-10T02:41:58.268Z,23.70
2018-02-10T02:44:24.864Z,23.33
2018-02-10T02:46:51.844Z,24.27
2018-02-10T02:49:19.000Z,22.10
2018-02-10T02:51:46.361Z,22.13
2018-02-10T02:54:13.351Z,24.43
2018-02-10T02:56:39.589Z,24.87
2018-02-10T02:59:06.226Z,22.73
2018-02-10T03:01:32.493Z,24.40
2018-02-10T03:03:58.747Z,23.70
2018-02-10T03:06:25.430Z,23.23
2018-02-10T03:08:51.687Z,20.37
2018-02-10T03:11:18.673Z,22.33
2018-02-10T03:13:45.285Z,21.63
2018-02-10T03:16:12.259Z,17.97
2018-02-10T03:18:39.244Z,19.13
2018-02-10T03:21:05.503Z,21.03
2018-02-10T03:23:31.813Z,21.90
2018-02-10T03:25:58.059Z,19.80
2018-02-10T03:28:24.807Z,20.50
2018-02-10T03:30:51.062Z,23.10
2018-02-10T03:33:17.325Z,23.00
2018-02-10T03:35:43.867Z,22.40
2018-02-10T03:38:10.848Z,24.07
2018-02-10T03:40:37.101Z,21.17
2018-02-10T03:43:04.128Z,23.23
2018-02-10T03:45:30.370Z,21.63
2018-02-10T03:47:56.611Z,20.47
2018-02-10T03:50:23.131Z,18.80
2018-02-10T03:52:49.411Z,20.40
2018-02-10T03:55:15.676Z,18.50
2018-02-10T04:07:27.291Z,16.20
2018-02-10T04:09:54.265Z,19.00
2018-02-10T04:12:20.916Z,17.77
2018-02-10T04:14:48.238Z,19.27
2018-02-10T04:17:14.488Z,18.33
2018-02-10T04:19:41.492Z,15.20
2018-02-10T04:22:08.030Z,20.27
2018-02-10T04:24:34.257Z,18.60
2018-02-10T04:27:00.500Z,21.13
2018-02-10T04:29:27.045Z,19.90
2018-02-10T04:31:53.316Z,20.70
2018-02-10T04:34:19.584Z,20.83
2018-02-10T04:36:46.132Z,19.57
2018-02-10T04:39:12.373Z,17.87
2018-02-10T04:41:40.148Z,20.27
2018-02-10T04:44:06.433Z,19.33
2018-02-10T04:46:32.696Z,21.13
2018-02-10T04:48:58.947Z,18.77
2018-02-10T04:51:25.551Z,17.70
2018-02-10T04:53:52.556Z,19.37
2018-02-10T04:56:18.820Z,16.23
2018-02-10T04:58:45.398Z,25.77
2018-02-10T05:01:12.387Z,22.03
2018-02-10T05:03:38.644Z,21.23
2018-02-10T05:06:04.936Z,19.37
2018-02-10T05:08:31.958Z,23.30
2018-02-10T05:10:58.200Z,19.90
2018-02-10T05:13:24.445Z,22.00
2018-02-10T05:15:50.740Z,19.30
2018-02-10T05:18:16.987Z,20.00
2018-02-10T05:20:43.758Z,23.37
2018-02-10T05:23:10.005Z,22.10
2018-02-10T05:25:36.240Z,21.13
2018-02-10T05:28:02.504Z,17.83
2018-02-10T05:30:28.736Z,17.63
2018-02-10T05:32:54.988Z,20.00
2018-02-10T05:35:21.260Z,20.53
2018-02-10T05:37:48.291Z,20.03
2018-02-10T05:40:14.530Z,20.17
2018-02-10T05:42:40.796Z,18.90
2018-02-10T05:45:07.784Z,20.23
2018-02-10T05:47:34.044Z,19.60
2018-02-10T05:50:00.593Z,18.20
2018-02-10T05:52:26.847Z,19.70
2018-02-10T05:54:53.118Z,18.83
2018-02-10T05:57:20.001Z,17.17
2018-02-10T05:59:46.236Z,20.67
2018-02-10T06:02:12.498Z,18.87
2018-02-10T06:04:40.172Z,20.80
2018-02-10T06:07:07.376Z,19.27
2018-02-10T06:09:33.716Z,15.77
2018-02-10T06:12:00.371Z,16.23
2018-02-10T06:14:27.474Z,19.13
2018-02-10T06:16:53.894Z,17.80
2018-02-10T06:19:21.354Z,19.47
2018-02-10T06:21:47.689Z,21.20
2018-02-10T06:24:13.944Z,19.00
2018-02-10T06:26:41.223Z,20.03
2018-02-10T06:29:07.483Z,20.67
2018-02-10T06:31:33.778Z,18.17
2018-02-10T06:34:00.049Z,18.60
2018-02-10T06:36:26.310Z,20.10
2018-02-10T06:38:52.554Z,17.77
2018-02-10T06:41:18.839Z,18.10
2018-02-10T06:43:45.093Z,18.50
2018-02-10T06:46:12.103Z,17.50
2018-02-10T06:48:38.357Z,16.43
2018-02-10T06:51:04.640Z,17.27
2018-02-10T06:53:31.765Z,18.97
2018-02-10T06:55:58.344Z,17.13
2018-02-10T06:58:26.592Z,17.13
2018-02-10T07:00:54.369Z,16.37
2018-02-10T07:03:20.771Z,16.93
2018-02-10T07:05:47.020Z,17.53
2018-02-10T07:08:13.264Z,18.13
2018-02-10T07:10:42.985Z,17.50
2018-02-10T07:13:13.333Z,17.97
2018-02-10T07:15:40.970Z,18.87
2018-02-10T07:18:08.228Z,17.83
2018-02-10T07:20:35.813Z,16.13
2018-02-10T07:23:02.124Z,16.70
2018-02-10T07:25:28.406Z,17.10
2018-02-10T07:27:54.708Z,14.20
2018-02-10T07:30:21.956Z,18.30
2018-02-10T07:32:48.220Z,18.20
2018-02-10T07:35:14.479Z,19.63
2018-02-10T07:37:40.748Z,17.23
2018-02-10T07:40:07.012Z,19.73
2018-02-10T07:42:33.269Z,16.63
2018-02-10T07:44:59.528Z,18.80
2018-02-10T07:47:25.796Z,16.47
2018-02-10T07:49:52.073Z,17.63
2018-02-10T07:52:18.316Z,17.57
2018-02-10T07:54:44.865Z,18.13
2018-02-10T07:57:11.135Z,18.70
2018-02-10T07:59:37.414Z,15.73
2018-02-10T08:02:03.693Z,17.70
2018-02-10T08:04:29.995Z,17.73
2018-02-10T08:06:56.248Z,17.00
2018-02-10T08:09:22.509Z,14.87
2018-02-10T08:11:48.740Z,16.43
2018-02-10T08:14:15.029Z,18.17
2018-02-10T08:16:42.281Z,18.07
2018-02-10T08:19:08.566Z,16.23
2018-02-10T08:21:34.828Z,16.77
2018-02-10T08:24:02.200Z,16.73
2018-02-10T08:26:28.485Z,15.37
2018-02-10T08:28:55.467Z,14.70
2018-02-10T08:31:22.747Z,14.17
2018-02-10T08:54:54.112Z,15.33
2018-02-10T10:00:31.847Z,13.10
2018-02-10T10:02:59.829Z,13.33
2018-02-10T10:05:26.092Z,12.93
2018-02-10T10:07:52.372Z,11.57
2018-02-10T10:10:19.366Z,12.70
2018-02-10T10:12:45.623Z,14.37
2018-02-10T10:15:11.915Z,14.57
2018-02-10T10:17:38.185Z,11.80
2018-02-10T10:20:04.500Z,12.97
2018-02-10T10:22:32.464Z,12.90
2018-02-10T10:24:58.732Z,11.30
2018-02-10T10:27:25.049Z,10.40
2018-02-10T10:29:51.367Z,10.90
2018-02-10T10:32:18.433Z,11.77
2018-02-10T10:34:45.629Z,9.87
2018-02-10T10:37:12.322Z,10.40
2018-02-10T11:32:07.564Z,13.47
2018-02-10T11:36:29.055Z,12.37
2018-02-10T11:38:57.227Z,11.93
2018-02-10T12:08:41.300Z,12.17
2018-02-10T12:20:58.999Z,8.27
2018-02-10T12:23:26.930Z,7.40
2018-02-10T12:25:54.865Z,6.70
2018-02-10T12:28:22.974Z,6.67
2018-02-10T12:30:49.999Z,7.30
2018-02-10T12:33:16.330Z,6.57
2018-02-10T12:38:19.520Z,14.73
2018-02-10T12:40:45.757Z,16.37
2018-02-10T12:43:13.711Z,16.57
2018-02-10T12:45:39.961Z,16.47
2018-02-10T12:51:26.060Z,15.73
2018-02-10T12:53:53.992Z,17.10
2018-02-10T12:56:21.982Z,16.87
2018-02-10T13:00:50.214Z,17.83
2018-02-10T13:03:18.198Z,15.80
2018-02-10T13:05:46.154Z,15.63
2018-02-10T13:08:14.131Z,15.00
2018-02-10T13:10:42.071Z,15.97
2018-02-10T13:13:10.028Z,15.37
2018-02-10T13:15:37.517Z,14.80
2018-02-10T13:18:05.459Z,16.13
2018-02-10T13:20:31.722Z,18.43
2018-02-10T13:22:57.976Z,16.83
2018-02-10T13:25:24.225Z,15.77
2018-02-10T13:27:51.605Z,18.13
2018-02-10T13:30:18.585Z,16.93
2018-02-10T13:32:44.861Z,16.10
2018-02-10T13:35:11.857Z,15.63
2018-02-10T13:37:39.128Z,16.10
2018-02-10T13:40:05.362Z,16.10
2018-02-10T13:42:31.593Z,19.93
2018-02-10T13:44:59.544Z,17.63
2018-02-10T13:47:25.928Z,15.90
2018-02-10T13:49:52.163Z,17.67
2018-02-10T13:52:19.173Z,17.37
2018-02-10T13:54:47.142Z,17.00
2018-02-10T13:57:14.249Z,17.27
2018-02-10T13:59:42.218Z,16.73
2018-02-10T14:02:08.453Z,18.80
2018-02-10T14:04:36.395Z,19.27
2018-02-10T14:07:02.653Z,16.23
2018-02-10T14:09:28.903Z,15.17
2018-02-10T14:11:56.907Z,16.27
2018-02-10T14:14:24.875Z,16.13
2018-02-10T14:16:51.143Z,16.77
2018-02-10T14:30:40.258Z,14.17
2018-02-10T14:34:31.206Z,13.77
2018-02-10T14:36:59.223Z,14.37
2018-02-10T14:39:27.310Z,13.00
2018-02-10T14:41:53.589Z,14.67
2018-02-10T14:44:21.583Z,16.20
2018-02-10T14:46:48.721Z,14.40
2018-02-10T14:49:15.059Z,15.23
2018-02-10T14:51:43.898Z,15.73
2018-02-10T14:54:10.148Z,15.13
2018-02-10T14:56:38.099Z,14.53
2018-02-10T14:59:04.619Z,15.33
2018-02-10T15:01:30.873Z,14.50
2018-02-10T15:03:58.823Z,13.90
2018-02-10T15:06:26.798Z,14.57
2018-02-10T15:08:53.073Z,14.93
2018-02-10T15:11:21.059Z,15.93
2018-02-10T15:13:47.485Z,15.40
2018-02-10T15:16:13.759Z,14.67
2018-02-10T15:18:41.704Z,14.87
2018-02-10T15:21:08.269Z,12.43
2018-02-10T15:23:36.232Z,13.33
2018-02-10T15:26:04.209Z,13.83
2018-02-10T15:28:32.203Z,12.13
2018-02-10T15:34:34.079Z,15.27
2018-02-10T15:37:02.199Z,16.67
2018-02-10T15:39:30.179Z,16.87
2018-02-10T15:41:58.298Z,13.50
2018-02-10T15:44:24.715Z,13.97
2018-02-10T15:46:52.716Z,14.97
2018-02-10T15:49:20.670Z,18.07
2018-02-10T15:51:48.609Z,16.67
2018-02-10T15:54:16.670Z,14.17
2018-02-10T15:56:44.639Z,14.70
2018-02-10T15:59:12.584Z,15.13
2018-02-10T16:01:40.689Z,14.50
2018-02-10T16:04:08.915Z,13.40
2018-02-10T16:06:36.863Z,13.50
2018-02-10T16:09:04.945Z,14.20
2018-02-10T16:11:32.961Z,13.60
2018-02-10T16:14:01.065Z,12.83
2018-02-10T16:16:29.035Z,14.00
2018-02-10T16:18:57.043Z,13.43
2018-02-10T16:21:23.321Z,11.73
2018-02-10T16:23:51.263Z,14.13
2018-02-10T16:26:19.257Z,13.37
2018-02-10T16:28:47.235Z,12.33
2018-02-10T16:31:15.327Z,11.70
2018-02-10T16:33:43.320Z,13.17
2018-02-10T16:36:10.119Z,13.00
2018-02-10T16:38:38.099Z,11.50
2018-02-10T16:41:04.685Z,12.30
2018-02-10T16:43:32.649Z,11.20
2018-02-10T16:46:00.619Z,11.40
2018-02-10T16:48:28.781Z,12.70
2018-02-10T16:50:56.905Z,12.27
2018-02-10T16:53:24.649Z,12.10
2018-02-10T16:55:52.627Z,12.13
2018-02-10T16:58:20.631Z,11.63
2018-02-10T17:00:48.577Z,12.33
2018-02-10T17:03:16.671Z,12.50
2018-02-10T17:05:44.779Z,10.90
2018-02-10T17:08:11.031Z,11.00
2018-02-10T17:10:39.123Z,11.03
2018-02-10T17:13:07.099Z,10.00
2018-02-10T17:15:35.039Z,11.73
2018-02-10T17:18:01.295Z,10.50
2018-02-10T17:20:29.293Z,11.30
2018-02-10T17:22:57.374Z,11.60
2018-02-10T17:25:24.687Z,11.10
2018-02-10T17:27:51.493Z,10.93
2018-02-10T17:30:17.759Z,11.40
2018-02-10T17:32:45.745Z,11.57
2018-02-10T17:35:13.835Z,12.37
2018-02-10T17:37:41.829Z,11.90
2018-02-10T17:40:09.829Z,10.83
2018-02-10T17:42:37.891Z,12.63
2018-02-10T17:45:05.911Z,13.87
2018-02-10T17:47:33.523Z,17.33
2018-02-10T17:50:01.622Z,16.63
2018-02-10T17:52:27.900Z,13.77
2018-02-10T17:54:56.121Z,11.13
2018-02-10T17:57:22.378Z,12.87
2018-02-10T17:59:48.674Z,16.13
2018-02-10T18:02:16.635Z,14.83
2018-02-10T18:04:44.583Z,13.53
2018-02-10T18:07:11.752Z,13.37
2018-02-10T18:09:39.732Z,15.83
2018-02-10T18:12:07.863Z,18.33
2018-02-10T18:14:35.829Z,13.40
2018-02-10T18:17:02.262Z,14.13
2018-02-10T18:19:28.532Z,11.60
2018-02-10T18:21:56.480Z,13.17
2018-02-10T18:24:24.716Z,11.27
2018-02-10T18:26:50.972Z,12.33
2018-02-10T18:29:19.079Z,12.67
2018-02-10T18:31:47.692Z,11.70
2018-02-10T18:34:14.695Z,10.47
2018-02-10T18:36:42.764Z,9.20
2018-02-10T18:39:10.741Z,9.20
2018-02-10T18:41:38.679Z,10.67
2018-02-10T18:44:06.698Z,11.83
2018-02-10T18:46:34.980Z,10.13
2018-02-10T18:49:02.284Z,10.33
2018-02-10T18:51:30.370Z,9.30
2018-02-10T18:53:58.364Z,9.90
2018-02-10T18:56:27.005Z,9.17
2018-02-10T18:58:53.272Z,10.00
2018-02-10T19:01:21.270Z,9.93
2018-02-10T19:03:47.524Z,9.60
2018-02-10T19:06:13.766Z,9.57
2018-02-10T19:08:41.833Z,9.90
2018-02-10T19:11:08.829Z,8.93
2018-02-10T19:13:35.256Z,10.83
2018-02-10T19:16:02.282Z,11.10
2018-02-10T19:18:29.635Z,9.90
2018-02-10T19:20:57.844Z,9.27
2018-02-10T19:23:25.832Z,9.57
2018-02-10T19:25:53.787Z,8.73
2018-02-10T19:28:20.071Z,9.50
2018-02-10T19:30:46.335Z,9.37
2018-02-10T19:33:12.584Z,8.83
2018-02-10T19:35:38.811Z,8.37
2018-02-10T19:38:06.784Z,8.43
2018-02-10T19:41:31.068Z,8.80
2018-02-10T19:43:57.327Z,8.47
2018-02-10T19:46:25.056Z,7.67
2018-02-10T19:48:52.994Z,8.20
2018-02-10T19:51:21.138Z,7.37
2018-02-10T19:53:48.140Z,7.27
2018-02-10T19:56:14.510Z,8.00
2018-02-10T19:58:41.912Z,7.60
2018-02-10T20:01:09.863Z,7.50
2018-02-10T20:03:37.873Z,7.63
2018-02-10T20:06:05.839Z,7.90
2018-02-10T20:08:33.036Z,9.67
2018-02-10T20:11:00.102Z,7.27
2018-02-10T20:13:28.215Z,8.97
2018-02-10T20:15:54.455Z,6.93
2018-02-10T20:18:20.924Z,8.23
2018-02-10T20:20:49.027Z,7.50
2018-02-10T20:23:16.975Z,7.23
2018-02-10T20:25:44.708Z,7.37
2018-02-10T20:28:12.683Z,6.67
2018-02-10T20:30:38.936Z,7.47
2018-02-10T20:33:06.895Z,6.90
2018-02-10T20:35:34.867Z,6.63
2018-02-10T20:38:02.820Z,7.30
2018-02-10T20:40:30.953Z,7.90
2018-02-10T20:42:58.931Z,7.53
2018-02-10T20:45:26.895Z,7.77
2018-02-10T20:47:54.883Z,7.70
2018-02-10T20:50:22.859Z,8.07
2018-02-10T20:52:50.901Z,8.00
2018-02-10T20:55:18.959Z,8.03
2018-02-10T20:57:46.959Z,8.17
2018-02-10T21:00:14.912Z,7.43
2018-02-10T21:02:42.863Z,8.70
2018-02-10T21:05:10.863Z,8.23
2018-02-10T21:07:38.949Z,10.63
2018-02-10T21:10:05.982Z,12.23
2018-02-10T21:12:34.235Z,14.87
2018-02-10T21:15:02.377Z,13.07
2018-02-10T21:17:30.347Z,13.10
2018-02-10T21:19:56.980Z,11.47
2018-02-10T21:22:24.977Z,11.53
2018-02-10T21:24:52.923Z,11.97
2018-02-10T21:27:20.880Z,11.83
2018-02-10T21:29:48.823Z,9.13
2018-02-10T21:32:16.781Z,11.10
2018-02-10T21:34:44.740Z,10.73
2018-02-10T21:37:10.975Z,11.07
2018-02-10T21:39:38.926Z,10.50
2018-02-10T21:42:06.899Z,9.00
2018-02-10T21:44:34.931Z,9.93
2018-02-10T21:47:03.062Z,8.73
2018-02-10T21:49:31.303Z,8.10
2018-02-10T21:51:59.267Z,7.70
2018-02-10T21:54:27.219Z,8.90
2018-02-10T21:56:55.315Z,8.07
2018-02-10T21:59:23.342Z,9.80
2018-02-10T22:01:51.299Z,9.77
2018-02-10T22:04:17.687Z,8.67
2018-02-10T22:06:43.972Z,8.33
2018-02-10T22:09:12.015Z,8.60
2018-02-10T22:11:38.273Z,9.37
2018-02-10T22:14:06.215Z,7.97
2018-02-10T22:16:34.159Z,7.67
2018-02-10T22:19:00.749Z,9.43
2018-02-10T22:21:28.811Z,8.60
2018-02-10T22:23:56.792Z,8.27
2018-02-10T22:26:24.804Z,9.67
2018-02-10T22:28:51.241Z,9.90
2018-02-10T22:31:17.534Z,8.63
2018-02-10T22:33:44.710Z,9.80
2018-02-10T22:36:12.659Z,8.67
2018-02-10T22:38:39.088Z,9.00
2018-02-10T22:41:06.348Z,8.37
2018-02-10T22:43:32.624Z,9.13
2018-02-10T22:45:58.888Z,8.43
2018-02-10T22:48:25.897Z,11.47
2018-02-10T22:50:52.155Z,10.67
2018-02-10T22:53:19.529Z,10.10
2018-02-10T22:57:19.596Z,9.03
2018-02-10T22:59:46.005Z,9.20
2018-02-10T23:02:12.271Z,9.27
2018-02-10T23:04:38.649Z,8.53
2018-02-10T23:07:05.004Z,8.80
2018-02-10T23:09:31.457Z,10.30
2018-02-10T23:11:57.982Z,8.20
2018-02-10T23:14:24.357Z,8.07
2018-02-10T23:16:52.335Z,7.80
2018-02-10T23:19:20.295Z,9.60
2018-02-10T23:21:46.528Z,11.20
2018-02-10T23:24:13.513Z,9.67
2018-02-10T23:26:40.109Z,9.07
2018-02-10T23:29:07.459Z,9.13
2018-02-10T23:31:35.479Z,7.83
2018-02-10T23:34:03.447Z,8.90
2018-02-10T23:36:29.829Z,8.97
2018-02-10T23:38:56.807Z,8.40
2018-02-10T23:41:23.264Z,8.03
2018-02-10T23:43:51.374Z,8.43
2018-02-10T23:46:19.103Z,9.27
2018-02-10T23:48:45.789Z,9.03
2018-02-10T23:51:12.778Z,8.83
2018-02-10T23:53:39.112Z,8.93
2018-02-10T23:56:05.636Z,9.53
2018-02-10T23:58:31.994Z,7.57
